Terminal Aerodrome Forecast
Issued by NWS

Home | Current Version | Previous Version | Text Only | Print | Product List | Glossary Off
Versions: 1 2 3 4 5 6 7 8 9 10 11 12 13 14 15

000
FTUS43 KGRB 302104 AAA
TAFCWA
TAF AMD
KCWA 302104Z 3021/0118 21005KT P6SM VCSH SCT007 OVC010
      TEMPO 3021/3024 5SM -RASN BR BKN007
     FM010000 27003KT 5SM -RASN BR OVC007
     FM010300 30004KT 5SM -SN BR OVC007
     FM011100 30007KT 5SM BR VCSH OVC006
     FM011500 30009KT P6SM BKN010 OVC040=

USA.gov is the U.S. government's official web portal to all federal, state and local government web resources and services.